sensor_id;sensor_type;location;lat;lon;timestamp;pressure;altitude;pressure_sealevel;temperature;humidity
11678;BME280;5895;41.950;24.372;2023-03-04T00:02:26;86618.75;;;1.71;100.00
11678;BME280;5895;41.950;24.372;2023-03-04T00:04:53;86617.16;;;1.70;100.00
11678;BME280;5895;41.950;24.372;2023-03-04T00:07:20;86612.03;;;1.70;100.00
11678;BME280;5895;41.950;24.372;2023-03-04T00:09:47;86611.25;;;1.69;100.00
11678;BME280;5895;41.950;24.372;2023-03-04T00:12:14;86613.97;;;1.68;100.00
11678;BME280;5895;41.950;24.372;2023-03-04T00:14:41;86613.19;;;1.67;100.00
11678;BME280;5895;41.950;24.372;2023-03-04T00:17:08;86626.16;;;1.66;100.00
11678;BME280;5895;41.950;24.372;2023-03-04T00:19:37;86623.59;;;1.66;100.00
11678;BME280;5895;41.950;24.372;2023-03-04T00:22:04;86631.63;;;1.63;100.00
11678;BME280;5895;41.950;24.372;2023-03-04T00:24:31;86631.63;;;1.63;100.00
11678;BME280;5895;41.950;24.372;2023-03-04T00:26:59;86631.03;;;1.61;100.00
11678;BME280;5895;41.950;24.372;2023-03-04T00:29:26;86627.66;;;1.60;100.00
11678;BME280;5895;41.950;24.372;2023-03-04T00:31:54;86627.88;;;1.58;100.00
11678;BME280;5895;41.950;24.372;2023-03-04T00:34:21;86623.72;;;1.57;100.00
11678;BME280;5895;41.950;24.372;2023-03-04T00:36:49;86621.16;;;1.57;100.00
11678;BME280;5895;41.950;24.372;2023-03-04T00:39:16;86625.66;;;1.55;100.00
11678;BME280;5895;41.950;24.372;2023-03-04T00:41:43;86625.06;;;1.53;100.00
11678;BME280;5895;41.950;24.372;2023-03-04T00:44:11;86629.38;;;1.53;100.00
11678;BME280;5895;41.950;24.372;2023-03-04T00:46:38;86622.84;;;1.50;100.00
11678;BME280;5895;41.950;24.372;2023-03-04T00:49:05;86619.69;;;1.48;100.00
11678;BME280;5895;41.950;24.372;2023-03-04T00:51:32;86614.56;;;1.48;100.00
11678;BME280;5895;41.950;24.372;2023-03-04T00:54:01;86618.09;;;1.47;100.00
11678;BME280;5895;41.950;24.372;2023-03-04T00:56:28;86609.47;;;1.48;100.00
11678;BME280;5895;41.950;24.372;2023-03-04T00:58:55;86604.16;;;1.50;100.00
11678;BME280;5895;41.950;24.372;2023-03-04T01:01:22;86610.06;;;1.50;100.00
11678;BME280;5895;41.950;24.372;2023-03-04T01:03:49;86599.69;;;1.52;100.00
11678;BME280;5895;41.950;24.372;2023-03-04T01:06:16;86611.47;;;1.53;100.00
11678;BME280;5895;41.950;24.372;2023-03-04T01:08:44;86607.94;;;1.54;100.00
11678;BME280;5895;41.950;24.372;2023-03-04T01:11:12;86610.31;;;1.55;100.00
11678;BME280;5895;41.950;24.372;2023-03-04T01:13:39;86608.13;;;1.52;100.00
11678;BME280;5895;41.950;24.372;2023-03-04T01:16:07;86604.78;;;1.52;100.00
11678;BME280;5895;41.950;24.372;2023-03-04T01:18:35;86602.84;;;1.54;100.00
11678;BME280;5895;41.950;24.372;2023-03-04T01:21:03;86606.19;;;1.54;100.00
11678;BME280;5895;41.950;24.372;2023-03-04T01:23:30;86595.94;;;1.54;100.00
11678;BME280;5895;41.950;24.372;2023-03-04T01:25:57;86590.84;;;1.54;100.00
11678;BME280;5895;41.950;24.372;2023-03-04T01:28:26;86591.63;;;1.55;100.00
11678;BME280;5895;41.950;24.372;2023-03-04T01:30:53;86595.75;;;1.56;100.00
11678;BME280;5895;41.950;24.372;2023-03-04T01:33:20;86589.84;;;1.55;100.00
11678;BME280;5895;41.950;24.372;2023-03-04T01:35:47;86595.94;;;1.54;100.00
11678;BME280;5895;41.950;24.372;2023-03-04T01:38:14;86596.56;;;1.56;100.00
11678;BME280;5895;41.950;24.372;2023-03-04T01:40:41;86593.41;;;1.54;100.00
11678;BME280;5895;41.950;24.372;2023-03-04T01:43:12;86589.25;;;1.53;100.00
11678;BME280;5895;41.950;24.372;2023-03-04T01:45:43;86590.66;;;1.56;100.00
11678;BME280;5895;41.950;24.372;2023-03-04T01:48:12;86593.03;;;1.57;100.00
11678;BME280;5895;41.950;24.372;2023-03-04T01:50:42;86593.03;;;1.57;100.00
11678;BME280;5895;41.950;24.372;2023-03-04T01:53:15;86593.84;;;1.58;100.00
11678;BME280;5895;41.950;24.372;2023-03-04T01:55:43;86593.03;;;1.57;100.00
11678;BME280;5895;41.950;24.372;2023-03-04T01:58:11;86579.63;;;1.55;100.00
11678;BME280;5895;41.950;24.372;2023-03-04T02:00:38;86587.94;;;1.57;100.00
11678;BME280;5895;41.950;24.372;2023-03-04T02:03:09;86586.16;;;1.58;100.00
11678;BME280;5895;41.950;24.372;2023-03-04T02:05:39;86580.41;;;1.56;100.00
11678;BME280;5895;41.950;24.372;2023-03-04T02:08:08;86578.06;;;1.54;100.00
11678;BME280;5895;41.950;24.372;2023-03-04T02:10:36;86579.63;;;1.55;100.00
11678;BME280;5895;41.950;24.372;2023-03-04T02:13:04;86581.22;;;1.56;100.00
11678;BME280;5895;41.950;24.372;2023-03-04T02:15:32;86580.59;;;1.54;100.00
11678;BME280;5895;41.950;24.372;2023-03-04T02:17:59;86577.25;;;1.54;100.00
11678;BME280;5895;41.950;24.372;2023-03-04T02:20:38;86575.50;;;1.54;100.00
11678;BME280;5895;41.950;24.372;2023-03-04T02:23:11;86574.91;;;1.52;100.00
11678;BME280;5895;41.950;24.372;2023-03-04T02:25:44;86564.66;;;1.52;100.00
11678;BME280;5895;41.950;24.372;2023-03-04T02:28:15;86566.59;;;1.50;100.00
11678;BME280;5895;41.950;24.372;2023-03-04T02:30:42;86569.16;;;1.50;100.00
11678;BME280;5895;41.950;24.372;2023-03-04T02:33:13;86572.50;;;1.51;100.00
11678;BME280;5895;41.950;24.372;2023-03-04T02:35:41;86565.63;;;1.51;100.00
11678;BME280;5895;41.950;24.372;2023-03-04T02:38:09;86557.94;;;1.51;100.00
11678;BME280;5895;41.950;24.372;2023-03-04T02:40:38;86559.72;;;1.51;100.00
11678;BME280;5895;41.950;24.372;2023-03-04T02:43:08;86553.81;;;1.50;100.00
11678;BME280;5895;41.950;24.372;2023-03-04T02:45:40;86560.50;;;1.51;100.00
11678;BME280;5895;41.950;24.372;2023-03-04T02:48:07;86563.78;;;1.45;100.00
11678;BME280;5895;41.950;24.372;2023-03-04T02:50:39;86559.06;;;1.42;100.00
11678;BME280;5895;41.950;24.372;2023-03-04T02:53:06;86566.91;;;1.41;100.00
11678;BME280;5895;41.950;24.372;2023-03-04T02:55:36;86570.06;;;1.43;100.00
11678;BME280;5895;41.950;24.372;2023-03-04T02:58:03;86576.16;;;1.42;100.00
11678;BME280;5895;41.950;24.372;2023-03-04T03:00:30;86578.72;;;1.42;100.00
11678;BME280;5895;41.950;24.372;2023-03-04T03:02:59;86571.84;;;1.42;100.00
11678;BME280;5895;41.950;24.372;2023-03-04T03:05:28;86580.91;;;1.45;100.00
11678;BME280;5895;41.950;24.372;2023-03-04T03:07:55;86576.56;;;1.45;100.00
11678;BME280;5895;41.950;24.372;2023-03-04T03:10:23;86587.44;;;1.47;100.00
11678;BME280;5895;41.950;24.372;2023-03-04T03:12:50;86579.56;;;1.49;100.00
11678;BME280;5895;41.950;24.372;2023-03-04T03:15:18;86576.81;;;1.50;100.00
11678;BME280;5895;41.950;24.372;2023-03-04T03:17:45;86579.38;;;1.50;100.00
11678;BME280;5895;41.950;24.372;2023-03-04T03:20:15;86577.63;;;1.51;100.00
11678;BME280;5895;41.950;24.372;2023-03-04T03:22:42;86580.34;;;1.49;100.00
11678;BME280;5895;41.950;24.372;2023-03-04T03:25:11;86579.38;;;1.50;100.00
11678;BME280;5895;41.950;24.372;2023-03-04T03:27:38;86581.94;;;1.50;100.00
11678;BME280;5895;41.950;24.372;2023-03-04T03:30:08;86578.78;;;1.48;100.00
11678;BME280;5895;41.950;24.372;2023-03-04T03:32:35;86580.00;;;1.52;100.00
11678;BME280;5895;41.950;24.372;2023-03-04T03:35:03;86578.41;;;1.51;100.00
11678;BME280;5895;41.950;24.372;2023-03-04T03:37:32;86573.28;;;1.51;100.00
11678;BME280;5895;41.950;24.372;2023-03-04T03:39:59;86570.94;;;1.50;100.00
11678;BME280;5895;41.950;24.372;2023-03-04T03:42:26;86576.22;;;1.48;100.00
11678;BME280;5895;41.950;24.372;2023-03-04T03:44:53;86566.00;;;1.48;100.00
11678;BME280;5895;41.950;24.372;2023-03-04T03:47:21;86572.09;;;1.47;100.00
11678;BME280;5895;41.950;24.372;2023-03-04T03:49:48;86569.34;;;1.49;100.00
11678;BME280;5895;41.950;24.372;2023-03-04T03:52:16;86565.56;;;1.45;100.00
11678;BME280;5895;41.950;24.372;2023-03-04T03:54:44;86568.91;;;1.45;100.00
11678;BME280;5895;41.950;24.372;2023-03-04T03:57:11;86565.75;;;1.43;100.00
11678;BME280;5895;41.950;24.372;2023-03-04T03:59:38;86575.00;;;1.44;100.00
11678;BME280;5895;41.950;24.372;2023-03-04T04:02:05;86575.97;;;1.43;100.00
11678;BME280;5895;41.950;24.372;2023-03-04T04:04:32;86574.41;;;1.42;100.00
11678;BME280;5895;41.950;24.372;2023-03-04T04:06:59;86579.50;;;1.42;100.00
11678;BME280;5895;41.950;24.372;2023-03-04T04:09:26;86574.41;;;1.42;100.00
11678;BME280;5895;41.950;24.372;2023-03-04T04:11:55;86581.09;;;1.43;100.00
11678;BME280;5895;41.950;24.372;2023-03-04T04:14:22;86577.16;;;1.41;100.00
11678;BME280;5895;41.950;24.372;2023-03-04T04:16:49;86574.41;;;1.42;100.00
11678;BME280;5895;41.950;24.372;2023-03-04T04:19:17;86577.94;;;1.41;100.00
11678;BME280;5895;41.950;24.372;2023-03-04T04:21:44;86576.69;;;1.37;100.00
11678;BME280;5895;41.950;24.372;2023-03-04T04:24:12;86582.78;;;1.36;100.00
11678;BME280;5895;41.950;24.372;2023-03-04T04:26:39;86585.34;;;1.36;100.00
11678;BME280;5895;41.950;24.372;2023-03-04T04:29:08;86587.91;;;1.36;100.00
11678;BME280;5895;41.950;24.372;2023-03-04T04:31:35;86579.44;;;1.36;100.00
11678;BME280;5895;41.950;24.372;2023-03-04T04:34:02;86582.78;;;1.36;100.00
11678;BME280;5895;41.950;24.372;2023-03-04T04:36:29;86581.03;;;1.37;100.00
11678;BME280;5895;41.950;24.372;2023-03-04T04:38:56;86576.69;;;1.37;100.00
11678;BME280;5895;41.950;24.372;2023-03-04T04:41:26;86576.69;;;1.37;100.00
11678;BME280;5895;41.950;24.372;2023-03-04T04:43:54;86577.50;;;1.38;100.00
11678;BME280;5895;41.950;24.372;2023-03-04T04:46:23;86572.19;;;1.39;100.00
11678;BME280;5895;41.950;24.372;2023-03-04T04:48:50;86574.75;;;1.39;100.00
11678;BME280;5895;41.950;24.372;2023-03-04T04:51:17;86570.63;;;1.38;100.00
11678;BME280;5895;41.950;24.372;2023-03-04T04:53:44;86575.13;;;1.36;100.00
11678;BME280;5895;41.950;24.372;2023-03-04T04:56:13;86573.53;;;1.35;100.00
11678;BME280;5895;41.950;24.372;2023-03-04T04:58:40;86576.69;;;1.37;100.00
11678;BME280;5895;41.950;24.372;2023-03-04T05:01:08;86573.53;;;1.35;100.00
11678;BME280;5895;41.950;24.372;2023-03-04T05:03:37;86580.22;;;1.36;100.00
11678;BME280;5895;41.950;24.372;2023-03-04T05:06:05;86580.22;;;1.36;100.00
11678;BME280;5895;41.950;24.372;2023-03-04T05:08:33;86571.59;;;1.37;100.00
11678;BME280;5895;41.950;24.372;2023-03-04T05:11:01;86576.69;;;1.37;100.00
11678;BME280;5895;41.950;24.372;2023-03-04T05:13:29;86575.91;;;1.37;100.00
11678;BME280;5895;41.950;24.372;2023-03-04T05:15:56;86574.34;;;1.36;100.00
11678;BME280;5895;41.950;24.372;2023-03-04T05:18:24;86578.66;;;1.35;100.00
11678;BME280;5895;41.950;24.372;2023-03-04T05:20:55;86572.91;;;1.33;100.00
11678;BME280;5895;41.950;24.372;2023-03-04T05:23:23;86568.78;;;1.32;100.00
11678;BME280;5895;41.950;24.372;2023-03-04T05:25:50;86569.56;;;1.32;100.00
11678;BME280;5895;41.950;24.372;2023-03-04T05:28:18;86577.44;;;1.31;100.00
11678;BME280;5895;41.950;24.372;2023-03-04T05:30:45;86572.91;;;1.33;100.00
11678;BME280;5895;41.950;24.372;2023-03-04T05:33:15;86578.66;;;1.35;100.00
11678;BME280;5895;41.950;24.372;2023-03-04T05:35:43;86579.44;;;1.36;100.00
11678;BME280;5895;41.950;24.372;2023-03-04T05:38:13;86571.94;;;1.34;100.00
11678;BME280;5895;41.950;24.372;2023-03-04T05:40:41;86580.22;;;1.36;100.00
11678;BME280;5895;41.950;24.372;2023-03-04T05:43:09;86579.44;;;1.36;100.00
11678;BME280;5895;41.950;24.372;2023-03-04T05:45:37;86577.31;;;1.39;100.00
11678;BME280;5895;41.950;24.372;2023-03-04T05:48:04;86582.06;;;1.42;100.00
11678;BME280;5895;41.950;24.372;2023-03-04T05:50:32;86583.03;;;1.41;100.00
11678;BME280;5895;41.950;24.372;2023-03-04T05:52:59;86582.66;;;1.44;100.00
11678;BME280;5895;41.950;24.372;2023-03-04T05:55:28;86586.81;;;1.45;100.00
11678;BME280;5895;41.950;24.372;2023-03-04T05:57:56;86588.22;;;1.48;100.00
11678;BME280;5895;41.950;24.372;2023-03-04T06:00:24;86578.78;;;1.48;100.00
11678;BME280;5895;41.950;24.372;2023-03-04T06:02:51;86587.06;;;1.50;100.00
11678;BME280;5895;41.950;24.372;2023-03-04T06:05:19;86592.16;;;1.50;100.00
11678;BME280;5895;41.950;24.372;2023-03-04T06:07:46;86593.75;;;1.51;100.00
11678;BME280;5895;41.950;24.372;2023-03-04T06:10:15;86599.47;;;1.53;100.00
11678;BME280;5895;41.950;24.372;2023-03-04T06:12:44;86593.75;;;1.51;100.00
11678;BME280;5895;41.950;24.372;2023-03-04T06:15:11;86598.84;;;1.51;100.00
11678;BME280;5895;41.950;24.372;2023-03-04T06:17:39;86596.31;;;1.51;100.00
11678;BME280;5895;41.950;24.372;2023-03-04T06:20:08;86600.47;;;1.52;100.00
11678;BME280;5895;41.950;24.372;2023-03-04T06:22:36;86598.50;;;1.54;100.00
11678;BME280;5895;41.950;24.372;2023-03-04T06:25:03;86601.06;;;1.54;100.00
11678;BME280;5895;41.950;24.372;2023-03-04T06:27:30;86605.19;;;1.55;100.00
11678;BME280;5895;41.950;24.372;2023-03-04T06:29:59;86604.41;;;1.55;100.00
11678;BME280;5895;41.950;24.372;2023-03-04T06:32:26;86604.22;;;1.56;100.00
11678;BME280;5895;41.950;24.372;2023-03-04T06:34:54;86604.84;;;1.58;100.00
11678;BME280;5895;41.950;24.372;2023-03-04T06:37:21;86613.91;;;1.61;100.00
11678;BME280;5895;41.950;24.372;2023-03-04T06:39:48;86617.69;;;1.65;100.00
11678;BME280;5895;41.950;24.372;2023-03-04T06:42:15;86615.59;;;1.69;100.00
11678;BME280;5895;41.950;24.372;2023-03-04T06:44:42;86620.31;;;1.72;100.00
11678;BME280;5895;41.950;24.372;2023-03-04T06:47:11;86620.75;;;1.75;100.00
11678;BME280;5895;41.950;24.372;2023-03-04T06:49:38;86623.72;;;1.79;100.00
11678;BME280;5895;41.950;24.372;2023-03-04T06:52:05;86615.69;;;1.82;100.00
11678;BME280;5895;41.950;24.372;2023-03-04T06:54:32;86610.19;;;1.85;100.00
11678;BME280;5895;41.950;24.372;2023-03-04T06:56:59;86607.88;;;1.90;100.00
11678;BME280;5895;41.950;24.372;2023-03-04T06:59:26;86611.66;;;1.94;100.00
11678;BME280;5895;41.950;24.372;2023-03-04T07:01:53;86611.91;;;1.99;100.00
11678;BME280;5895;41.950;24.372;2023-03-04T07:04:22;86609.59;;;2.04;100.00
11678;BME280;5895;41.950;24.372;2023-03-04T07:06:49;86611.97;;;2.06;100.00
11678;BME280;5895;41.950;24.372;2023-03-04T07:09:17;86611.06;;;2.14;100.00
11678;BME280;5895;41.950;24.372;2023-03-04T07:11:45;86607.34;;;2.16;100.00
11678;BME280;5895;41.950;24.372;2023-03-04T07:14:12;86595.75;;;2.20;100.00
11678;BME280;5895;41.950;24.372;2023-03-04T07:16:39;86608.59;;;2.27;100.00
11678;BME280;5895;41.950;24.372;2023-03-04T07:19:06;86608.22;;;2.30;100.00
11678;BME280;5895;41.950;24.372;2023-03-04T07:21:35;86595.66;;;2.35;100.00
11678;BME280;5895;41.950;24.372;2023-03-04T07:24:02;86595.31;;;2.38;100.00
11678;BME280;5895;41.950;24.372;2023-03-04T07:26:30;86594.13;;;2.41;100.00
11678;BME280;5895;41.950;24.372;2023-03-04T07:28:57;86584.31;;;2.44;100.00
11678;BME280;5895;41.950;24.372;2023-03-04T07:31:26;86587.69;;;2.51;100.00
11678;BME280;5895;41.950;24.372;2023-03-04T07:33:56;86594.03;;;2.55;100.00
11678;BME280;5895;41.950;24.372;2023-03-04T07:36:24;86591.72;;;2.60;99.76
11678;BME280;5895;41.950;24.372;2023-03-04T07:38:53;86597.06;;;2.65;99.65
11678;BME280;5895;41.950;24.372;2023-03-04T07:41:21;86595.09;;;2.68;99.01
11678;BME280;5895;41.950;24.372;2023-03-04T07:43:48;86588.22;;;2.68;99.77
11678;BME280;5895;41.950;24.372;2023-03-04T07:46:16;86591.78;;;2.74;100.00
11678;BME280;5895;41.950;24.372;2023-03-04T07:48:43;86589.84;;;2.76;100.00
11678;BME280;5895;41.950;24.372;2023-03-04T07:51:12;86586.91;;;2.79;99.46
11678;BME280;5895;41.950;24.372;2023-03-04T07:53:42;86583.78;;;2.83;99.50
11678;BME280;5895;41.950;24.372;2023-03-04T07:56:13;86590.91;;;2.88;98.65
11678;BME280;5895;41.950;24.372;2023-03-04T07:58:40;86589.38;;;3.00;99.56
11678;BME280;5895;41.950;24.372;2023-03-04T08:01:09;86595.53;;;3.12;98.96
11678;BME280;5895;41.950;24.372;2023-03-04T08:03:36;86596.59;;;3.25;97.96
11678;BME280;5895;41.950;24.372;2023-03-04T08:06:04;86610.47;;;3.37;97.78
11678;BME280;5895;41.950;24.372;2023-03-04T08:08:32;86605.75;;;3.47;97.70
11678;BME280;5895;41.950;24.372;2023-03-04T08:10:59;86603.03;;;3.55;97.05
11678;BME280;5895;41.950;24.372;2023-03-04T08:13:27;86594.38;;;3.69;97.10
11678;BME280;5895;41.950;24.372;2023-03-04T08:15:55;86604.28;;;3.86;95.31
11678;BME280;5895;41.950;24.372;2023-03-04T08:18:22;86598.00;;;4.02;95.40
11678;BME280;5895;41.950;24.372;2023-03-04T08:20:49;86593.09;;;4.13;95.30
11678;BME280;5895;41.950;24.372;2023-03-04T08:23:16;86594.50;;;4.22;95.10
11678;BME280;5895;41.950;24.372;2023-03-04T08:25:44;86598.84;;;4.29;94.41
11678;BME280;5895;41.950;24.372;2023-03-04T08:28:11;86579.50;;;4.33;94.08
11678;BME280;5895;41.950;24.372;2023-03-04T08:30:41;86593.28;;;4.32;93.93
11678;BME280;5895;41.950;24.372;2023-03-04T08:33:09;86599.84;;;4.28;95.37
11678;BME280;5895;41.950;24.372;2023-03-04T08:35:36;86592.09;;;4.14;97.49
11678;BME280;5895;41.950;24.372;2023-03-04T08:38:03;86594.66;;;4.01;97.64
11678;BME280;5895;41.950;24.372;2023-03-04T08:40:31;86594.84;;;3.93;98.09
11678;BME280;5895;41.950;24.372;2023-03-04T08:42:58;86588.88;;;3.86;100.00
11678;BME280;5895;41.950;24.372;2023-03-04T08:45:25;86597.97;;;3.82;100.00
11678;BME280;5895;41.950;24.372;2023-03-04T08:47:54;86599.72;;;3.81;100.00
11678;BME280;5895;41.950;24.372;2023-03-04T08:50:21;86592.84;;;3.82;100.00
11678;BME280;5895;41.950;24.372;2023-03-04T08:52:48;86592.84;;;3.82;100.00
11678;BME280;5895;41.950;24.372;2023-03-04T08:55:15;86592.84;;;3.82;100.00
11678;BME280;5895;41.950;24.372;2023-03-04T08:57:42;86590.28;;;3.82;100.00
11678;BME280;5895;41.950;24.372;2023-03-04T09:00:10;86597.56;;;3.85;100.00
11678;BME280;5895;41.950;24.372;2023-03-04T09:02:38;86595.59;;;3.87;100.00
11678;BME280;5895;41.950;24.372;2023-03-04T09:05:07;86588.09;;;3.85;100.00
11678;BME280;5895;41.950;24.372;2023-03-04T09:07:34;86578.25;;;3.89;100.00
11678;BME280;5895;41.950;24.372;2023-03-04T09:10:02;86577.84;;;3.85;100.00
11678;BME280;5895;41.950;24.372;2023-03-04T09:12:29;86585.16;;;3.82;100.00
11678;BME280;5895;41.950;24.372;2023-03-04T09:14:56;86590.06;;;3.77;100.00
11678;BME280;5895;41.950;24.372;2023-03-04T09:17:23;86585.72;;;3.70;100.00
11678;BME280;5895;41.950;24.372;2023-03-04T09:19:50;86588.06;;;3.65;100.00
11678;BME280;5895;41.950;24.372;2023-03-04T09:22:19;86584.50;;;3.60;100.00
11678;BME280;5895;41.950;24.372;2023-03-04T09:24:46;86588.22;;;3.57;100.00
11678;BME280;5895;41.950;24.372;2023-03-04T09:27:13;86587.25;;;3.58;100.00
11678;BME280;5895;41.950;24.372;2023-03-04T09:29:40;86588.84;;;3.59;100.00
11678;BME280;5895;41.950;24.372;2023-03-04T09:32:09;86588.84;;;3.59;100.00
11678;BME280;5895;41.950;24.372;2023-03-04T09:34:36;86578.59;;;3.59;100.00
11678;BME280;5895;41.950;24.372;2023-03-04T09:37:03;86579.75;;;3.63;100.00
11678;BME280;5895;41.950;24.372;2023-03-04T09:39:31;86579.19;;;3.68;100.00
11678;BME280;5895;41.950;24.372;2023-03-04T09:41:59;86571.91;;;3.71;100.00
11678;BME280;5895;41.950;24.372;2023-03-04T09:44:30;86577.81;;;3.79;100.00
11678;BME280;5895;41.950;24.372;2023-03-04T09:47:00;86572.31;;;3.82;100.00
11678;BME280;5895;41.950;24.372;2023-03-04T09:49:29;86574.47;;;3.85;100.00
11678;BME280;5895;41.950;24.372;2023-03-04T09:52:01;86570.94;;;3.92;100.00
11678;BME280;5895;41.950;24.372;2023-03-04T09:54:53;86567.78;;;3.90;100.00
11678;BME280;5895;41.950;24.372;2023-03-04T09:57:27;86570.75;;;3.87;100.00
11678;BME280;5895;41.950;24.372;2023-03-04T10:00:04;86568.00;;;3.89;100.00
11678;BME280;5895;41.950;24.372;2023-03-04T10:02:44;86563.66;;;3.96;100.00
11678;BME280;5895;41.950;24.372;2023-03-04T10:05:14;86562.88;;;4.02;100.00
11678;BME280;5895;41.950;24.372;2023-03-04T10:07:46;86557.34;;;4.05;100.00
11678;BME280;5895;41.950;24.372;2023-03-04T10:10:22;86556.34;;;4.06;100.00
11678;BME280;5895;41.950;24.372;2023-03-04T10:12:52;86560.50;;;4.07;100.00
11678;BME280;5895;41.950;24.372;2023-03-04T10:15:26;86547.66;;;4.07;100.00
11678;BME280;5895;41.950;24.372;2023-03-04T10:18:02;86551.22;;;4.06;100.00
11678;BME280;5895;41.950;24.372;2023-03-04T10:20:42;86559.50;;;4.02;100.00
11678;BME280;5895;41.950;24.372;2023-03-04T10:23:17;86547.66;;;3.94;100.00
11678;BME280;5895;41.950;24.372;2023-03-04T10:25:46;86544.88;;;3.89;100.00
11678;BME280;5895;41.950;24.372;2023-03-04T10:28:20;86547.03;;;3.85;100.00
11678;BME280;5895;41.950;24.372;2023-03-04T10:30:54;86539.34;;;3.85;100.00
11678;BME280;5895;41.950;24.372;2023-03-04T10:33:26;86528.88;;;3.87;100.00
11678;BME280;5895;41.950;24.372;2023-03-04T10:36:00;86517.84;;;4.00;100.00
11678;BME280;5895;41.950;24.372;2023-03-04T10:38:30;86519.03;;;4.10;100.00
11678;BME280;5895;41.950;24.372;2023-03-04T10:40:59;86517.84;;;4.13;100.00
11678;BME280;5895;41.950;24.372;2023-03-04T10:43:27;86517.06;;;4.19;100.00
11678;BME280;5895;41.950;24.372;2023-03-04T10:45:56;86517.03;;;4.25;100.00
11678;BME280;5895;41.950;24.372;2023-03-04T10:48:25;86522.38;;;4.31;100.00
11678;BME280;5895;41.950;24.372;2023-03-04T10:50:53;86516.25;;;4.32;100.00
11678;BME280;5895;41.950;24.372;2023-03-04T10:53:39;86515.09;;;4.34;100.00
11678;BME280;5895;41.950;24.372;2023-03-04T10:56:31;86506.78;;;4.39;100.00
11678;BME280;5895;41.950;24.372;2023-03-04T11:02:15;86500.47;;;4.35;100.00
11678;BME280;5895;41.950;24.372;2023-03-04T11:04:48;86501.66;;;4.39;100.00
11678;BME280;5895;41.950;24.372;2023-03-04T11:07:17;86494.75;;;4.33;100.00
11678;BME280;5895;41.950;24.372;2023-03-04T11:09:44;86499.69;;;4.28;100.00
11678;BME280;5895;41.950;24.372;2023-03-04T11:12:14;86484.66;;;4.24;100.00
11678;BME280;5895;41.950;24.372;2023-03-04T11:14:45;86474.38;;;4.24;100.00
11678;BME280;5895;41.950;24.372;2023-03-04T11:17:21;86479.13;;;4.28;100.00
11678;BME280;5895;41.950;24.372;2023-03-04T11:19:55;86468.44;;;4.37;100.00
11678;BME280;5895;41.950;24.372;2023-03-04T11:22:24;86469.59;;;4.48;100.00
11678;BME280;5895;41.950;24.372;2023-03-04T11:24:56;86472.97;;;4.55;100.00
11678;BME280;5895;41.950;24.372;2023-03-04T11:27:33;86466.84;;;4.56;100.00
11678;BME280;5895;41.950;24.372;2023-03-04T11:30:15;86455.56;;;4.57;100.00
11678;BME280;5895;41.950;24.372;2023-03-04T11:32:47;86459.31;;;4.61;100.00
11678;BME280;5895;41.950;24.372;2023-03-04T11:35:21;86458.53;;;4.61;100.00
11678;BME280;5895;41.950;24.372;2023-03-04T11:37:52;86461.91;;;4.48;100.00
11678;BME280;5895;41.950;24.372;2023-03-04T11:40:28;86457.59;;;4.35;100.00
11678;BME280;5895;41.950;24.372;2023-03-04T11:43:02;86450.88;;;4.34;100.00
11678;BME280;5895;41.950;24.372;2023-03-04T11:45:44;86445.72;;;4.41;100.00
11678;BME280;5895;41.950;24.372;2023-03-04T11:48:25;86449.47;;;4.51;100.00
11678;BME280;5895;41.950;24.372;2023-03-04T11:51:02;86452.00;;;4.58;100.00
11678;BME280;5895;41.950;24.372;2023-03-04T11:53:39;86453.59;;;4.66;100.00
11678;BME280;5895;41.950;24.372;2023-03-04T11:56:19;86459.69;;;4.71;100.00
11678;BME280;5895;41.950;24.372;2023-03-04T12:02:11;86448.25;;;4.67;100.00
11678;BME280;5895;41.950;24.372;2023-03-04T12:05:10;86440.34;;;4.62;100.00
11678;BME280;5895;41.950;24.372;2023-03-04T12:10:43;86442.72;;;4.57;100.00
11678;BME280;5895;41.950;24.372;2023-03-04T12:13:39;86438.59;;;4.56;100.00
11678;BME280;5895;41.950;24.372;2023-03-04T12:16:21;86439.97;;;4.52;100.00
11678;BME280;5895;41.950;24.372;2023-03-04T12:19:14;86437.59;;;4.50;100.00
11678;BME280;5895;41.950;24.372;2023-03-04T12:22:02;86431.25;;;4.53;100.00
11678;BME280;5895;41.950;24.372;2023-03-04T12:27:29;86433.22;;;4.58;100.00
11678;BME280;5895;41.950;24.372;2023-03-04T12:30:03;86430.28;;;4.54;100.00
11678;BME280;5895;41.950;24.372;2023-03-04T12:32:38;86431.09;;;4.48;100.00
11678;BME280;5895;41.950;24.372;2023-03-04T12:38:09;86428.75;;;4.40;100.00
11678;BME280;5895;41.950;24.372;2023-03-04T12:40:43;86425.00;;;4.36;100.00
11678;BME280;5895;41.950;24.372;2023-03-04T12:43:26;86422.66;;;4.28;100.00
11678;BME280;5895;41.950;24.372;2023-03-04T12:46:03;86414.94;;;4.28;100.00
11678;BME280;5895;41.950;24.372;2023-03-04T12:48:36;86421.06;;;4.33;100.00
11678;BME280;5895;41.950;24.372;2023-03-04T12:51:22;86417.47;;;4.41;100.00
11678;BME280;5895;41.950;24.372;2023-03-04T12:54:01;86426.38;;;4.45;100.00
11678;BME280;5895;41.950;24.372;2023-03-04T12:56:36;86423.19;;;4.43;100.00
11678;BME280;5895;41.950;24.372;2023-03-04T12:59:13;86423.81;;;4.38;100.00
11678;BME280;5895;41.950;24.372;2023-03-04T13:01:45;86417.09;;;4.31;100.00
11678;BME280;5895;41.950;24.372;2023-03-04T13:04:20;86419.88;;;4.29;100.00
11678;BME280;5895;41.950;24.372;2023-03-04T13:07:01;86407.25;;;4.28;100.00
11678;BME280;5895;41.950;24.372;2023-03-04T13:09:39;86411.19;;;4.23;100.00
11678;BME280;5895;41.950;24.372;2023-03-04T13:12:14;86406.44;;;4.20;100.00
11678;BME280;5895;41.950;24.372;2023-03-04T13:17:43;86404.50;;;4.03;100.00
11678;BME280;5895;41.950;24.372;2023-03-04T13:20:19;86405.28;;;4.03;100.00
11678;BME280;5895;41.950;24.372;2023-03-04T13:22:56;86403.34;;;3.98;100.00
11678;BME280;5895;41.950;24.372;2023-03-04T13:25:36;86405.72;;;3.93;100.00
11678;BME280;5895;41.950;24.372;2023-03-04T13:28:31;86405.31;;;3.90;100.00
11678;BME280;5895;41.950;24.372;2023-03-04T13:31:13;86406.91;;;3.84;100.00
11678;BME280;5895;41.950;24.372;2023-03-04T13:33:53;86401.38;;;3.81;100.00